sensor_id;sensor_type;location;lat;lon;timestamp;pressure;altitude;pressure_sealevel;temperature
11926;BMP180;6022;48.768;18.608;2023-08-20T00:01:41;98824.78;;;21.86
11926;BMP180;6022;48.768;18.608;2023-08-20T00:04:09;98820.09;;;21.89
11926;BMP180;6022;48.768;18.608;2023-08-20T00:06:37;98818.03;;;21.93
11926;BMP180;6022;48.768;18.608;2023-08-20T00:09:04;98820.91;;;21.90
11926;BMP180;6022;48.768;18.608;2023-08-20T00:11:34;98823.81;;;21.87
11926;BMP180;6022;48.768;18.608;2023-08-20T00:14:01;98826.03;;;21.74
11926;BMP180;6022;48.768;18.608;2023-08-20T00:16:28;98823.44;;;21.66
11926;BMP180;6022;48.768;18.608;2023-08-20T00:18:56;98813.09;;;21.66
11926;BMP180;6022;48.768;18.608;2023-08-20T00:21:24;98822.81;;;21.72
11926;BMP180;6022;48.768;18.608;2023-08-20T00:23:51;98811.78;;;21.62
11926;BMP180;6022;48.768;18.608;2023-08-20T00:26:18;98812.09;;;21.59
11926;BMP180;6022;48.768;18.608;2023-08-20T00:28:46;98813.91;;;21.66
11926;BMP180;6022;48.768;18.608;2023-08-20T00:31:13;98812.94;;;21.67
11926;BMP180;6022;48.768;18.608;2023-08-20T00:33:40;98814.69;;;21.67
11926;BMP180;6022;48.768;18.608;2023-08-20T00:36:23;98813.91;;;21.66
11926;BMP180;6022;48.768;18.608;2023-08-20T00:38:50;98817.59;;;21.64
11926;BMP180;6022;48.768;18.608;2023-08-20T00:41:17;98807.22;;;21.56
11926;BMP180;6022;48.768;18.608;2023-08-20T00:43:44;98806.75;;;21.53
11926;BMP180;6022;48.768;18.608;2023-08-20T00:46:11;98802.69;;;21.50
11926;BMP180;6022;48.768;18.608;2023-08-20T00:48:39;98799.16;;;21.51
11926;BMP180;6022;48.768;18.608;2023-08-20T00:51:06;98805.28;;;21.50
11926;BMP180;6022;48.768;18.608;2023-08-20T00:53:33;98802.38;;;21.53
11926;BMP180;6022;48.768;18.608;2023-08-20T00:56:00;98806.25;;;21.49
11926;BMP180;6022;48.768;18.608;2023-08-20T00:58:27;98801.38;;;21.46
11926;BMP180;6022;48.768;18.608;2023-08-20T01:00:54;98807.06;;;21.50
11926;BMP180;6022;48.768;18.608;2023-08-20T01:03:21;98813.19;;;21.49
11926;BMP180;6022;48.768;18.608;2023-08-20T01:06:00;98811.09;;;21.52
11926;BMP180;6022;48.768;18.608;2023-08-20T01:08:37;98810.63;;;21.57
11926;BMP180;6022;48.768;18.608;2023-08-20T01:11:40;98814.03;;;21.57
11926;BMP180;6022;48.768;18.608;2023-08-20T01:14:17;98817.25;;;21.59
11926;BMP180;6022;48.768;18.608;2023-08-20T01:16:45;98817.56;;;21.56
11926;BMP180;6022;48.768;18.608;2023-08-20T01:19:20;98821.13;;;21.55
11926;BMP180;6022;48.768;18.608;2023-08-20T01:28:31;98815.47;;;21.26
11926;BMP180;6022;48.768;18.608;2023-08-20T01:31:00;98816.41;;;21.25
11926;BMP180;6022;48.768;18.608;2023-08-20T01:33:30;98820.94;;;21.23
11926;BMP180;6022;48.768;18.608;2023-08-20T01:35:58;98816.56;;;21.24
11926;BMP180;6022;48.768;18.608;2023-08-20T01:38:25;98817.69;;;21.22
11926;BMP180;6022;48.768;18.608;2023-08-20T01:40:52;98820.88;;;21.16
11926;BMP180;6022;48.768;18.608;2023-08-20T01:43:19;98821.19;;;21.13
11926;BMP180;6022;48.768;18.608;2023-08-20T01:45:46;98815.06;;;21.14
11926;BMP180;6022;48.768;18.608;2023-08-20T01:48:13;98820.53;;;21.11
11926;BMP180;6022;48.768;18.608;2023-08-20T01:50:40;98826.50;;;21.11
11926;BMP180;6022;48.768;18.608;2023-08-20T01:53:07;98826.13;;;20.98
11926;BMP180;6022;48.768;18.608;2023-08-20T01:55:34;98830.09;;;20.93
11926;BMP180;6022;48.768;18.608;2023-08-20T01:58:01;98822.66;;;20.90
11926;BMP180;6022;48.768;18.608;2023-08-20T02:00:29;98824.28;;;20.91
11926;BMP180;6022;48.768;18.608;2023-08-20T02:02:57;98829.97;;;20.94
11926;BMP180;6022;48.768;18.608;2023-08-20T02:05:25;98830.28;;;20.99
11926;BMP180;6022;48.768;18.608;2023-08-20T02:07:53;98827.19;;;20.96
11926;BMP180;6022;48.768;18.608;2023-08-20T02:10:21;98821.25;;;20.95
11926;BMP180;6022;48.768;18.608;2023-08-20T02:12:48;98819.13;;;20.91
11926;BMP180;6022;48.768;18.608;2023-08-20T02:15:15;98822.66;;;20.90
11926;BMP180;6022;48.768;18.608;2023-08-20T02:17:42;98816.38;;;20.92
11926;BMP180;6022;48.768;18.608;2023-08-20T02:20:10;98819.78;;;20.93
11926;BMP180;6022;48.768;18.608;2023-08-20T02:22:39;98820.72;;;20.92
11926;BMP180;6022;48.768;18.608;2023-08-20T02:25:07;98827.00;;;20.89
11926;BMP180;6022;48.768;18.608;2023-08-20T02:27:34;98816.97;;;20.86
11926;BMP180;6022;48.768;18.608;2023-08-20T02:30:02;98819.72;;;20.85
11926;BMP180;6022;48.768;18.608;2023-08-20T02:32:30;98822.31;;;20.85
11926;BMP180;6022;48.768;18.608;2023-08-20T02:34:59;98821.19;;;20.87
11926;BMP180;6022;48.768;18.608;2023-08-20T02:37:26;98811.16;;;20.84
11926;BMP180;6022;48.768;18.608;2023-08-20T02:39:53;98817.16;;;20.85
11926;BMP180;6022;48.768;18.608;2023-08-20T02:42:20;98820.97;;;20.81
11926;BMP180;6022;48.768;18.608;2023-08-20T02:44:47;98814.34;;;20.79
11926;BMP180;6022;48.768;18.608;2023-08-20T02:47:15;98816.56;;;20.74
11926;BMP180;6022;48.768;18.608;2023-08-20T02:49:42;98811.72;;;20.71
11926;BMP180;6022;48.768;18.608;2023-08-20T02:52:09;98809.56;;;20.66
11926;BMP180;6022;48.768;18.608;2023-08-20T02:54:36;98815.84;;;20.64
11926;BMP180;6022;48.768;18.608;2023-08-20T02:57:03;98822.94;;;20.62
11926;BMP180;6022;48.768;18.608;2023-08-20T02:59:30;98806.63;;;20.61
11926;BMP180;6022;48.768;18.608;2023-08-20T03:02:05;98815.47;;;20.59
11926;BMP180;6022;48.768;18.608;2023-08-20T03:04:32;98808.53;;;20.59
11926;BMP180;6022;48.768;18.608;2023-08-20T03:06:59;98810.47;;;20.57
11926;BMP180;6022;48.768;18.608;2023-08-20T03:09:26;98808.69;;;20.58
11926;BMP180;6022;48.768;18.608;2023-08-20T03:11:54;98810.31;;;20.42
11926;BMP180;6022;48.768;18.608;2023-08-20T03:14:21;98810.47;;;20.40
11926;BMP180;6022;48.768;18.608;2023-08-20T03:16:49;98818.22;;;20.40
11926;BMP180;6022;48.768;18.608;2023-08-20T03:19:17;98813.19;;;20.39
11926;BMP180;6022;48.768;18.608;2023-08-20T03:21:44;98821.59;;;20.41
11926;BMP180;6022;48.768;18.608;2023-08-20T03:24:12;98820.94;;;20.39
11926;BMP180;6022;48.768;18.608;2023-08-20T03:26:39;98827.69;;;20.40
11926;BMP180;6022;48.768;18.608;2023-08-20T03:29:06;98817.97;;;20.34
11926;BMP180;6022;48.768;18.608;2023-08-20T03:31:33;98818.56;;;20.28
11926;BMP180;6022;48.768;18.608;2023-08-20T03:34:00;98829.69;;;20.28
11926;BMP180;6022;48.768;18.608;2023-08-20T03:36:27;98827.91;;;20.29
11926;BMP180;6022;48.768;18.608;2023-08-20T03:38:54;98828.59;;;20.31
11926;BMP180;6022;48.768;18.608;2023-08-20T03:41:21;98833.91;;;20.29
11926;BMP180;6022;48.768;18.608;2023-08-20T03:43:49;98834.41;;;20.33
11926;BMP180;6022;48.768;18.608;2023-08-20T03:46:16;98830.88;;;20.34
11926;BMP180;6022;48.768;18.608;2023-08-20T03:48:43;98823.66;;;20.37
11926;BMP180;6022;48.768;18.608;2023-08-20T03:51:10;98819.97;;;20.40
11926;BMP180;6022;48.768;18.608;2023-08-20T03:53:38;98829.91;;;20.35
11926;BMP180;6022;48.768;18.608;2023-08-20T03:56:05;98833.31;;;20.35
11926;BMP180;6022;48.768;18.608;2023-08-20T03:58:32;98827.69;;;20.40
11926;BMP180;6022;48.768;18.608;2023-08-20T04:00:59;98833.69;;;20.40
11926;BMP180;6022;48.768;18.608;2023-08-20T04:03:26;98835.00;;;20.44
11926;BMP180;6022;48.768;18.608;2023-08-20T04:05:53;98842.56;;;20.45
11926;BMP180;6022;48.768;18.608;2023-08-20T04:08:20;98847.72;;;20.45
11926;BMP180;6022;48.768;18.608;2023-08-20T04:10:48;98833.22;;;20.45
11926;BMP180;6022;48.768;18.608;2023-08-20T04:13:15;98836.00;;;20.51
11926;BMP180;6022;48.768;18.608;2023-08-20T04:15:43;98843.16;;;20.57
11926;BMP180;6022;48.768;18.608;2023-08-20T04:18:10;98843.31;;;20.73
11926;BMP180;6022;48.768;18.608;2023-08-20T04:20:38;98844.22;;;21.06
11926;BMP180;6022;48.768;18.608;2023-08-20T04:23:05;98847.53;;;21.41
11926;BMP180;6022;48.768;18.608;2023-08-20T04:25:32;98838.16;;;21.73
11926;BMP180;6022;48.768;18.608;2023-08-20T04:27:59;98848.91;;;22.10
11926;BMP180;6022;48.768;18.608;2023-08-20T04:30:26;98850.09;;;22.23
11926;BMP180;6022;48.768;18.608;2023-08-20T04:32:54;98848.19;;;22.57
11926;BMP180;6022;48.768;18.608;2023-08-20T04:35:21;98843.34;;;22.38
11926;BMP180;6022;48.768;18.608;2023-08-20T04:37:48;98846.91;;;22.76
11926;BMP180;6022;48.768;18.608;2023-08-20T04:40:15;98845.00;;;22.71
11926;BMP180;6022;48.768;18.608;2023-08-20T04:42:44;98855.97;;;22.73
11926;BMP180;6022;48.768;18.608;2023-08-20T04:45:11;98854.34;;;22.79
11926;BMP180;6022;48.768;18.608;2023-08-20T04:47:39;98844.97;;;22.78
11926;BMP180;6022;48.768;18.608;2023-08-20T04:50:07;98836.53;;;23.24
11926;BMP180;6022;48.768;18.608;2023-08-20T04:52:34;98835.81;;;23.91
11926;BMP180;6022;48.768;18.608;2023-08-20T04:55:02;98832.22;;;24.53
11926;BMP180;6022;48.768;18.608;2023-08-20T04:57:29;98842.69;;;25.04
11926;BMP180;6022;48.768;18.608;2023-08-20T04:59:57;98835.25;;;25.43
11926;BMP180;6022;48.768;18.608;2023-08-20T05:02:24;98836.59;;;25.83
11926;BMP180;6022;48.768;18.608;2023-08-20T05:04:55;98838.34;;;26.25
11926;BMP180;6022;48.768;18.608;2023-08-20T05:07:22;98843.59;;;26.31
11926;BMP180;6022;48.768;18.608;2023-08-20T05:19:06;98839.09;;;27.63
11926;BMP180;6022;48.768;18.608;2023-08-20T05:21:36;98834.25;;;27.60
11926;BMP180;6022;48.768;18.608;2023-08-20T05:24:04;98842.56;;;27.82
11926;BMP180;6022;48.768;18.608;2023-08-20T05:26:35;98831.44;;;27.61
11926;BMP180;6022;48.768;18.608;2023-08-20T05:29:02;98842.97;;;27.79
11926;BMP180;6022;48.768;18.608;2023-08-20T05:31:30;98839.19;;;27.48
11926;BMP180;6022;48.768;18.608;2023-08-20T05:33:57;98837.44;;;27.55
11926;BMP180;6022;48.768;18.608;2023-08-20T05:36:29;98839.28;;;28.08
11926;BMP180;6022;48.768;18.608;2023-08-20T05:38:56;98847.22;;;27.93
11926;BMP180;6022;48.768;18.608;2023-08-20T05:41:23;98847.09;;;27.68
11926;BMP180;6022;48.768;18.608;2023-08-20T05:43:50;98848.75;;;28.21
11926;BMP180;6022;48.768;18.608;2023-08-20T05:46:19;98857.75;;;28.06
11926;BMP180;6022;48.768;18.608;2023-08-20T05:48:46;98859.31;;;28.01
11926;BMP180;6022;48.768;18.608;2023-08-20T05:51:16;98849.81;;;28.46
11926;BMP180;6022;48.768;18.608;2023-08-20T05:53:44;98855.44;;;28.56
11926;BMP180;6022;48.768;18.608;2023-08-20T05:56:11;98846.47;;;28.91
11926;BMP180;6022;48.768;18.608;2023-08-20T05:58:40;98859.44;;;29.74
11926;BMP180;6022;48.768;18.608;2023-08-20T06:01:09;98861.03;;;30.31
11926;BMP180;6022;48.768;18.608;2023-08-20T06:03:39;98861.84;;;29.82
11926;BMP180;6022;48.768;18.608;2023-08-20T06:06:06;98870.28;;;29.84
11926;BMP180;6022;48.768;18.608;2023-08-20T06:08:35;98862.38;;;30.40
11926;BMP180;6022;48.768;18.608;2023-08-20T06:11:02;98861.53;;;30.46
11926;BMP180;6022;48.768;18.608;2023-08-20T06:13:29;98871.50;;;29.68
11926;BMP180;6022;48.768;18.608;2023-08-20T06:15:56;98862.19;;;30.42
11926;BMP180;6022;48.768;18.608;2023-08-20T06:18:24;98870.16;;;30.53
11926;BMP180;6022;48.768;18.608;2023-08-20T06:20:51;98877.72;;;30.98
11926;BMP180;6022;48.768;18.608;2023-08-20T06:23:18;98867.28;;;31.58
11926;BMP180;6022;48.768;18.608;2023-08-20T06:26:05;98864.44;;;32.71
11926;BMP180;6022;48.768;18.608;2023-08-20T06:28:32;98870.34;;;33.07
11926;BMP180;6022;48.768;18.608;2023-08-20T06:31:00;98871.63;;;32.75
11926;BMP180;6022;48.768;18.608;2023-08-20T06:33:27;98868.06;;;32.58
11926;BMP180;6022;48.768;18.608;2023-08-20T06:35:54;98871.81;;;32.91
11926;BMP180;6022;48.768;18.608;2023-08-20T06:38:21;98874.50;;;32.15
11926;BMP180;6022;48.768;18.608;2023-08-20T06:40:49;98874.44;;;32.51
11926;BMP180;6022;48.768;18.608;2023-08-20T06:43:17;98881.56;;;32.62
11926;BMP180;6022;48.768;18.608;2023-08-20T06:45:44;98875.41;;;31.92
11926;BMP180;6022;48.768;18.608;2023-08-20T06:48:11;98870.22;;;32.03
11926;BMP180;6022;48.768;18.608;2023-08-20T06:50:38;98872.06;;;33.47
11926;BMP180;6022;48.768;18.608;2023-08-20T06:53:06;98871.63;;;33.27
11926;BMP180;6022;48.768;18.608;2023-08-20T06:55:33;98873.31;;;33.10
11926;BMP180;6022;48.768;18.608;2023-08-20T06:58:05;98874.81;;;33.06
11926;BMP180;6022;48.768;18.608;2023-08-20T07:00:35;98863.22;;;32.44
11926;BMP180;6022;48.768;18.608;2023-08-20T07:03:02;98872.88;;;33.24
11926;BMP180;6022;48.768;18.608;2023-08-20T07:05:30;98866.56;;;33.59
11926;BMP180;6022;48.768;18.608;2023-08-20T07:07:57;98868.94;;;34.23
11926;BMP180;6022;48.768;18.608;2023-08-20T07:10:25;98880.81;;;34.36
11926;BMP180;6022;48.768;18.608;2023-08-20T07:12:52;98876.16;;;34.99
11926;BMP180;6022;48.768;18.608;2023-08-20T07:15:19;98879.84;;;36.10
11926;BMP180;6022;48.768;18.608;2023-08-20T07:17:48;98872.06;;;35.78
11926;BMP180;6022;48.768;18.608;2023-08-20T07:20:17;98869.41;;;35.99
11926;BMP180;6022;48.768;18.608;2023-08-20T07:22:54;98881.50;;;36.16
11926;BMP180;6022;48.768;18.608;2023-08-20T07:25:23;98864.81;;;36.89
11926;BMP180;6022;48.768;18.608;2023-08-20T07:27:55;98877.38;;;36.20
11926;BMP180;6022;48.768;18.608;2023-08-20T07:30:26;98872.38;;;36.76
11926;BMP180;6022;48.768;18.608;2023-08-20T07:32:59;98877.06;;;37.77
11926;BMP180;6022;48.768;18.608;2023-08-20T07:35:33;98877.28;;;38.31
11926;BMP180;6022;48.768;18.608;2023-08-20T07:38:03;98880.81;;;38.76
11926;BMP180;6022;48.768;18.608;2023-08-20T07:40:43;98873.41;;;38.63
11926;BMP180;6022;48.768;18.608;2023-08-20T07:43:13;98875.00;;;39.19
11926;BMP180;6022;48.768;18.608;2023-08-20T07:45:42;98871.50;;;38.39
11926;BMP180;6022;48.768;18.608;2023-08-20T07:48:10;98874.72;;;39.30
11926;BMP180;6022;48.768;18.608;2023-08-20T07:50:41;98868.03;;;39.62
11926;BMP180;6022;48.768;18.608;2023-08-20T07:53:11;98866.69;;;39.55
11926;BMP180;6022;48.768;18.608;2023-08-20T07:55:46;98867.31;;;38.73
11926;BMP180;6022;48.768;18.608;2023-08-20T07:58:13;98865.09;;;38.35
11926;BMP180;6022;48.768;18.608;2023-08-20T08:00:41;98864.41;;;39.24
11926;BMP180;6022;48.768;18.608;2023-08-20T08:03:11;98868.91;;;39.23
11926;BMP180;6022;48.768;18.608;2023-08-20T08:05:41;98869.88;;;39.57
11926;BMP180;6022;48.768;18.608;2023-08-20T08:08:09;98865.53;;;39.90
11926;BMP180;6022;48.768;18.608;2023-08-20T08:10:44;98864.34;;;40.21
11926;BMP180;6022;48.768;18.608;2023-08-20T08:13:23;98864.72;;;40.53
11926;BMP180;6022;48.768;18.608;2023-08-20T08:15:51;98860.84;;;39.58
11926;BMP180;6022;48.768;18.608;2023-08-20T08:18:20;98862.53;;;38.80
11926;BMP180;6022;48.768;18.608;2023-08-20T08:20:49;98866.75;;;38.71
11926;BMP180;6022;48.768;18.608;2023-08-20T08:23:16;98856.31;;;38.20
11926;BMP180;6022;48.768;18.608;2023-08-20T08:25:48;98861.94;;;39.47
11926;BMP180;6022;48.768;18.608;2023-08-20T08:28:15;98861.94;;;39.47
11926;BMP180;6022;48.768;18.608;2023-08-20T08:30:42;98864.09;;;39.25
11926;BMP180;6022;48.768;18.608;2023-08-20T08:33:10;98861.81;;;39.86
11926;BMP180;6022;48.768;18.608;2023-08-20T08:35:37;98856.38;;;39.43
11926;BMP180;6022;48.768;18.608;2023-08-20T08:38:04;98852.91;;;38.34
11926;BMP180;6022;48.768;18.608;2023-08-20T08:40:33;98856.59;;;38.23
11926;BMP180;6022;48.768;18.608;2023-08-20T08:43:02;98857.13;;;38.21
11926;BMP180;6022;48.768;18.608;2023-08-20T08:45:30;98848.88;;;37.15
11926;BMP180;6022;48.768;18.608;2023-08-20T08:48:02;98852.56;;;37.50
11926;BMP180;6022;48.768;18.608;2023-08-20T08:50:31;98855.34;;;38.65
11926;BMP180;6022;48.768;18.608;2023-08-20T08:52:59;98852.94;;;39.38
11926;BMP180;6022;48.768;18.608;2023-08-20T08:55:26;98858.28;;;38.84
11926;BMP180;6022;48.768;18.608;2023-08-20T08:57:54;98845.31;;;37.92
11926;BMP180;6022;48.768;18.608;2023-08-20T09:00:21;98859.25;;;38.19
11926;BMP180;6022;48.768;18.608;2023-08-20T09:02:48;98851.88;;;38.40
11926;BMP180;6022;48.768;18.608;2023-08-20T09:05:15;98851.75;;;38.01
11926;BMP180;6022;48.768;18.608;2023-08-20T09:07:44;98848.63;;;38.19
11926;BMP180;6022;48.768;18.608;2023-08-20T09:10:16;98838.53;;;38.11
11926;BMP180;6022;48.768;18.608;2023-08-20T09:12:48;98850.25;;;37.18
11926;BMP180;6022;48.768;18.608;2023-08-20T09:15:15;98848.41;;;37.69
11926;BMP180;6022;48.768;18.608;2023-08-20T09:17:42;98849.56;;;37.83
11926;BMP180;6022;48.768;18.608;2023-08-20T09:20:10;98852.78;;;37.49
11926;BMP180;6022;48.768;18.608;2023-08-20T09:22:38;98841.28;;;36.88
11926;BMP180;6022;48.768;18.608;2023-08-20T09:25:06;98855.25;;;37.60
11926;BMP180;6022;48.768;18.608;2023-08-20T09:27:41;98852.63;;;37.60
11926;BMP180;6022;48.768;18.608;2023-08-20T09:30:08;98852.88;;;38.24
11926;BMP180;6022;48.768;18.608;2023-08-20T09:32:37;98852.91;;;38.34
11926;BMP180;6022;48.768;18.608;2023-08-20T09:35:05;98845.63;;;37.44
11926;BMP180;6022;48.768;18.608;2023-08-20T09:37:33;98847.59;;;37.64
11926;BMP180;6022;48.768;18.608;2023-08-20T09:40:01;98842.69;;;37.41
11926;BMP180;6022;48.768;18.608;2023-08-20T09:42:47;98855.16;;;37.41
11926;BMP180;6022;48.768;18.608;2023-08-20T09:45:20;98847.81;;;37.52
11926;BMP180;6022;48.768;18.608;2023-08-20T09:47:55;98843.56;;;37.10
11926;BMP180;6022;48.768;18.608;2023-08-20T09:50:26;98841.38;;;37.39
11926;BMP180;6022;48.768;18.608;2023-08-20T09:52:59;98846.97;;;37.98
11926;BMP180;6022;48.768;18.608;2023-08-20T09:55:33;98845.34;;;37.41
11926;BMP180;6022;48.768;18.608;2023-08-20T10:02:52;98842.88;;;38.51
11926;BMP180;6022;48.768;18.608;2023-08-20T10:05:25;98829.81;;;37.54
11926;BMP180;6022;48.768;18.608;2023-08-20T10:08:03;98839.31;;;36.00
11926;BMP180;6022;48.768;18.608;2023-08-20T10:10:34;98824.50;;;36.77
11926;BMP180;6022;48.768;18.608;2023-08-20T10:13:06;98829.06;;;36.56
11926;BMP180;6022;48.768;18.608;2023-08-20T10:15:39;98830.25;;;37.42
11926;BMP180;6022;48.768;18.608;2023-08-20T10:18:11;98830.97;;;37.78
11926;BMP180;6022;48.768;18.608;2023-08-20T10:20:39;98831.63;;;37.08
11926;BMP180;6022;48.768;18.608;2023-08-20T10:23:12;98832.16;;;36.74
11926;BMP180;6022;48.768;18.608;2023-08-20T10:25:43;98830.88;;;37.58
11926;BMP180;6022;48.768;18.608;2023-08-20T10:31:11;98825.47;;;37.39
11926;BMP180;6022;48.768;18.608;2023-08-20T10:33:53;98820.50;;;37.06
11926;BMP180;6022;48.768;18.608;2023-08-20T10:36:23;98824.41;;;37.35
11926;BMP180;6022;48.768;18.608;2023-08-20T10:39:03;98822.50;;;36.32
11926;BMP180;6022;48.768;18.608;2023-08-20T10:41:32;98815.03;;;36.55
11926;BMP180;6022;48.768;18.608;2023-08-20T10:44:04;98815.03;;;36.24
11926;BMP180;6022;48.768;18.608;2023-08-20T10:46:52;98814.09;;;36.14
11926;BMP180;6022;48.768;18.608;2023-08-20T10:49:22;98819.75;;;36.01
11926;BMP180;6022;48.768;18.608;2023-08-20T10:52:03;98819.00;;;36.27
11926;BMP180;6022;48.768;18.608;2023-08-20T10:54:34;98817.41;;;36.04
11926;BMP180;6022;48.768;18.608;2023-08-20T10:57:09;98811.19;;;36.15
11926;BMP180;6022;48.768;18.608;2023-08-20T10:59:40;98803.75;;;36.33
11926;BMP180;6022;48.768;18.608;2023-08-20T11:02:14;98809.09;;;36.69
11926;BMP180;6022;48.768;18.608;2023-08-20T11:04:42;98810.09;;;37.36
11926;BMP180;6022;48.768;18.608;2023-08-20T11:07:17;98801.56;;;37.24
11926;BMP180;6022;48.768;18.608;2023-08-20T11:09:45;98807.94;;;37.88
11926;BMP180;6022;48.768;18.608;2023-08-20T11:12:15;98809.34;;;38.01
11926;BMP180;6022;48.768;18.608;2023-08-20T11:14:43;98808.72;;;37.74
11926;BMP180;6022;48.768;18.608;2023-08-20T11:17:16;98795.69;;;37.68
11926;BMP180;6022;48.768;18.608;2023-08-20T11:19:45;98800.75;;;37.79
11926;BMP180;6022;48.768;18.608;2023-08-20T11:22:28;98799.06;;;38.29
11926;BMP180;6022;48.768;18.608;2023-08-20T11:24:56;98804.00;;;37.96
11926;BMP180;6022;48.768;18.608;2023-08-20T11:27:29;98807.06;;;38.49
11926;BMP180;6022;48.768;18.608;2023-08-20T11:29:58;98799.91;;;38.54
11926;BMP180;6022;48.768;18.608;2023-08-20T11:32:31;98805.22;;;38.54
11926;BMP180;6022;48.768;18.608;2023-08-20T11:34:58;98798.31;;;38.43
11926;BMP180;6022;48.768;18.608;2023-08-20T11:37:27;98801.19;;;38.61
11926;BMP180;6022;48.768;18.608;2023-08-20T11:39:56;98798.75;;;38.01
11926;BMP180;6022;48.768;18.608;2023-08-20T11:42:23;98790.78;;;38.11
11926;BMP180;6022;48.768;18.608;2023-08-20T11:44:51;98793.06;;;37.73
11926;BMP180;6022;48.768;18.608;2023-08-20T11:47:18;98797.16;;;38.00
11926;BMP180;6022;48.768;18.608;2023-08-20T11:49:46;98782.50;;;37.27
11926;BMP180;6022;48.768;18.608;2023-08-20T11:52:13;98783.63;;;38.01
11926;BMP180;6022;48.768;18.608;2023-08-20T11:54:42;98783.81;;;37.80
11926;BMP180;6022;48.768;18.608;2023-08-20T11:57:09;98780.31;;;37.55
11926;BMP180;6022;48.768;18.608;2023-08-20T11:59:39;98783.78;;;37.70
11926;BMP180;6022;48.768;18.608;2023-08-20T12:02:06;98781.50;;;37.38
11926;BMP180;6022;48.768;18.608;2023-08-20T12:04:39;98773.97;;;36.48
11926;BMP180;6022;48.768;18.608;2023-08-20T12:07:14;98775.22;;;36.35
11926;BMP180;6022;48.768;18.608;2023-08-20T12:09:41;98778.91;;;37.02
11926;BMP180;6022;48.768;18.608;2023-08-20T12:12:12;98777.00;;;36.92
11926;BMP180;6022;48.768;18.608;2023-08-20T12:14:42;98770.47;;;37.04
11926;BMP180;6022;48.768;18.608;2023-08-20T12:17:10;98778.19;;;37.11
11926;BMP180;6022;48.768;18.608;2023-08-20T12:19:45;98769.50;;;37.20
11926;BMP180;6022;48.768;18.608;2023-08-20T12:22:12;98763.19;;;37.26
11926;BMP180;6022;48.768;18.608;2023-08-20T12:24:40;98769.13;;;37.48
11926;BMP180;6022;48.768;18.608;2023-08-20T12:27:09;98764.66;;;37.53
11926;BMP180;6022;48.768;18.608;2023-08-20T12:29:45;98776.25;;;36.08
11926;BMP180;6022;48.768;18.608;2023-08-20T12:32:15;98762.47;;;35.59
11926;BMP180;6022;48.768;18.608;2023-08-20T12:34:45;98753.78;;;36.37
11926;BMP180;6022;48.768;18.608;2023-08-20T12:37:12;98759.78;;;36.95
11926;BMP180;6022;48.768;18.608;2023-08-20T12:39:40;98763.50;;;37.40
11926;BMP180;6022;48.768;18.608;2023-08-20T12:42:10;98750.00;;;37.41
11926;BMP180;6022;48.768;18.608;2023-08-20T12:44:40;98754.00;;;37.48
11926;BMP180;6022;48.768;18.608;2023-08-20T12:47:09;98755.56;;;36.99
11926;BMP180;6022;48.768;18.608;2023-08-20T12:49:37;98752.06;;;36.83
11926;BMP180;6022;48.768;18.608;2023-08-20T12:52:04;98749.72;;;37.33
11926;BMP180;6022;48.768;18.608;2023-08-20T12:54:31;98756.44;;;37.50
11926;BMP180;6022;48.768;18.608;2023-08-20T12:57:01;98747.50;;;37.76
11926;BMP180;6022;48.768;18.608;2023-08-20T12:59:28;98752.97;;;37.49
11926;BMP180;6022;48.768;18.608;2023-08-20T13:01:58;98741.16;;;37.16
11926;BMP180;6022;48.768;18.608;2023-08-20T13:04:29;98744.78;;;36.64
11926;BMP180;6022;48.768;18.608;2023-08-20T13:07:03;98736.72;;;36.80
11926;BMP180;6022;48.768;18.608;2023-08-20T13:09:31;98735.59;;;36.71
11926;BMP180;6022;48.768;18.608;2023-08-20T13:12:01;98730.97;;;36.93
11926;BMP180;6022;48.768;18.608;2023-08-20T13:14:30;98731.63;;;36.74
11926;BMP180;6022;48.768;18.608;2023-08-20T13:16:58;98732.94;;;36.40
11926;BMP180;6022;48.768;18.608;2023-08-20T13:19:28;98737.41;;;35.83
11926;BMP180;6022;48.768;18.608;2023-08-20T13:21:55;98732.56;;;35.75
11926;BMP180;6022;48.768;18.608;2023-08-20T13:24:22;98735.13;;;35.70
11926;BMP180;6022;48.768;18.608;2023-08-20T13:26:51;98734.22;;;35.81
11926;BMP180;6022;48.768;18.608;2023-08-20T13:29:18;98724.41;;;35.76
11926;BMP180;6022;48.768;18.608;2023-08-20T13:31:47;98726.34;;;35.86
11926;BMP180;6022;48.768;18.608;2023-08-20T13:34:16;98722.94;;;35.90
11926;BMP180;6022;48.768;18.608;2023-08-20T13:36:46;98736.81;;;35.76
11926;BMP180;6022;48.768;18.608;2023-08-20T13:39:14;98729.13;;;35.53
11926;BMP180;6022;48.768;18.608;2023-08-20T13:41:50;98724.94;;;35.36
11926;BMP180;6022;48.768;18.608;2023-08-20T13:44:19;98738.47;;;35.39
11926;BMP180;6022;48.768;18.608;2023-08-20T13:46:46;98724.78;;;35.42
11926;BMP180;6022;48.768;18.608;2023-08-20T13:49:14;98721.53;;;35.35
11926;BMP180;6022;48.768;18.608;2023-08-20T13:51:41;98724.78;;;35.42
11926;BMP180;6022;48.768;18.608;2023-08-20T13:54:08;98726.06;;;35.61
11926;BMP180;6022;48.768;18.608;2023-08-20T13:56:39;98716.50;;;35.55
11926;BMP180;6022;48.768;18.608;2023-08-20T13:59:08;98720.00;;;35.60
11926;BMP180;6022;48.768;18.608;2023-08-20T14:01:36;98710.66;;;35.53
11926;BMP180;6022;48.768;18.608;2023-08-20T14:04:03;98716.53;;;35.17
11926;BMP180;6022;48.768;18.608;2023-08-20T14:06:33;98718.13;;;35.18
11926;BMP180;6022;48.768;18.608;2023-08-20T14:09:00;98712.72;;;35.09
11926;BMP180;6022;48.768;18.608;2023-08-20T14:11:28;98714.38;;;34.93
11926;BMP180;6022;48.768;18.608;2023-08-20T14:13:57;98706.47;;;35.14
11926;BMP180;6022;48.768;18.608;2023-08-20T14:16:27;98713.91;;;35.17
11926;BMP180;6022;48.768;18.608;2023-08-20T14:18:54;98716.28;;;35.19
11926;BMP180;6022;48.768;18.608;2023-08-20T14:21:22;98714.88;;;35.11
11926;BMP180;6022;48.768;18.608;2023-08-20T14:23:49;98702.66;;;35.06
11926;BMP180;6022;48.768;18.608;2023-08-20T14:26:18;98709.69;;;35.00
11926;BMP180;6022;48.768;18.608;2023-08-20T14:28:45;98704.88;;;34.76
11926;BMP180;6022;48.768;18.608;2023-08-20T14:31:13;98704.81;;;34.87
11926;BMP180;6022;48.768;18.608;2023-08-20T14:33:43;98703.28;;;34.91
11926;BMP180;6022;48.768;18.608;2023-08-20T14:36:12;98704.81;;;34.87
11926;BMP180;6022;48.768;18.608;2023-08-20T14:38:42;98701.28;;;34.66
11926;BMP180;6022;48.768;18.608;2023-08-20T14:41:11;98696.97;;;34.76
11926;BMP180;6022;48.768;18.608;2023-08-20T14:43:40;98705.50;;;34.83